createdAt,value
2022-09-12T00:02:30.328Z,99859.94
2022-09-12T00:06:35.856Z,99868.78
2022-09-12T00:10:40.424Z,99860.88
2022-09-12T00:14:43.424Z,99860.00
2022-09-12T00:18:48.772Z,99864.44
2022-09-12T00:22:51.722Z,99858.25
2022-09-12T00:26:54.769Z,99867.09
2022-09-12T00:30:58.031Z,99867.09
2022-09-12T00:35:03.372Z,99859.13
2022-09-12T00:39:06.940Z,99852.94
2022-09-12T00:43:15.184Z,99853.81
2022-09-12T00:47:23.431Z,99852.94
2022-09-12T00:51:30.582Z,99844.94
2022-09-12T00:55:39.117Z,99851.97
2022-09-12T00:59:46.012Z,99850.19
2022-09-12T01:03:50.097Z,99842.19
2022-09-12T01:07:57.656Z,99849.25
2022-09-12T01:12:03.161Z,99843.03
2022-09-12T01:16:07.929Z,99835.03
2022-09-12T01:20:52.648Z,99833.25
2022-09-12T01:25:08.586Z,99828.78
2022-09-12T01:29:28.892Z,99827.88
2022-09-12T01:33:57.033Z,99826.06
2022-09-12T01:38:10.039Z,99819.88
2022-09-12T01:42:22.180Z,99818.97
2022-09-12T01:46:33.305Z,99812.72
2022-09-12T01:50:44.141Z,99809.16
2022-09-12T01:54:51.792Z,99815.28
2022-09-12T01:59:00.384Z,99812.63
2022-09-12T02:03:10.002Z,99825.88
2022-09-12T02:07:17.651Z,99816.09
2022-09-12T02:11:21.524Z,99819.59
2022-09-12T02:15:33.836Z,99815.19
2022-09-12T02:19:41.403Z,99812.53
2022-09-12T02:23:49.637Z,99811.63
2022-09-12T02:27:56.666Z,99811.63
2022-09-12T02:32:03.324Z,99814.25
2022-09-12T02:36:21.996Z,99806.31
2022-09-12T02:40:26.992Z,99803.69
2022-09-12T02:44:32.228Z,99801.94
2022-09-12T02:48:41.549Z,99797.50
2022-09-12T02:52:45.382Z,99799.34
2022-09-12T02:56:49.853Z,99792.34
2022-09-12T03:00:59.788Z,99788.88
2022-09-12T03:05:23.958Z,99783.59
2022-09-12T03:09:37.899Z,99793.41
2022-09-12T03:13:54.146Z,99790.81
2022-09-12T03:18:21.565Z,99807.72
2022-09-12T03:22:32.756Z,99801.56
2022-09-12T03:26:41.488Z,99797.16
2022-09-12T03:30:48.288Z,99801.63
2022-09-12T03:34:51.558Z,99797.19
2022-09-12T03:38:54.739Z,99791.94
2022-09-12T03:42:57.923Z,99786.69
2022-09-12T03:47:02.673Z,99784.06
2022-09-12T03:51:08.174Z,99779.69
2022-09-12T03:55:11.231Z,99782.38
2022-09-12T03:59:14.216Z,99795.66
2022-09-12T04:03:19.408Z,99791.28
2022-09-12T04:07:22.368Z,99788.69
2022-09-12T04:11:25.369Z,99797.59
2022-09-12T04:15:28.444Z,99796.69
2022-09-12T04:19:32.888Z,99789.66
2022-09-12T04:23:36.867Z,99788.81
2022-09-12T04:27:40.131Z,99798.53
2022-09-12T04:31:43.425Z,99795.84
2022-09-12T04:35:47.990Z,99794.06
2022-09-12T04:39:51.883Z,99793.16
2022-09-12T04:43:58.231Z,99793.16
2022-09-12T04:48:01.844Z,99790.50
2022-09-12T04:52:06.332Z,99795.84
2022-09-12T04:56:10.970Z,99788.81
2022-09-12T05:00:15.331Z,99799.38
2022-09-12T05:04:19.604Z,99797.59
2022-09-12T05:08:24.043Z,99795.78
2022-09-12T05:12:27.045Z,99810.81
2022-09-12T05:16:31.304Z,99822.28
2022-09-12T05:20:34.539Z,99821.34
2022-09-12T05:24:39.749Z,99827.47
2022-09-12T05:28:43.754Z,99838.03
2022-09-12T05:32:47.008Z,99839.75
2022-09-12T05:36:50.121Z,99838.88
2022-09-12T05:40:54.496Z,99845.03
2022-09-12T05:44:57.622Z,99850.28
2022-09-12T05:49:04.803Z,99848.44
2022-09-12T05:53:08.594Z,99843.03
2022-09-12T05:57:13.084Z,99848.31
2022-09-12T06:01:18.010Z,99849.06
2022-09-12T06:05:21.178Z,99841.88
2022-09-12T06:09:25.505Z,99839.06
2022-09-12T06:13:29.963Z,99843.34
2022-09-12T06:17:33.438Z,99845.03
2022-09-12T06:21:37.841Z,99844.09
2022-09-12T06:25:47.683Z,99847.53
2022-09-12T06:29:52.602Z,99843.94
2022-09-12T06:33:56.872Z,99858.84
2022-09-12T06:37:59.857Z,99855.22
2022-09-12T06:42:02.861Z,99856.88
2022-09-12T06:46:13.189Z,99861.13
2022-09-12T06:50:16.857Z,99858.31
2022-09-12T06:54:20.123Z,99860.00
2022-09-12T06:58:23.338Z,99862.56
2022-09-12T07:02:27.758Z,99866.88
2022-09-12T07:06:32.722Z,99865.78
2022-09-12T07:10:35.862Z,99873.78
2022-09-12T07:14:39.012Z,99873.72
2022-09-12T07:18:43.753Z,99880.88
2022-09-12T07:22:47.042Z,99871.81
2022-09-12T07:26:50.015Z,99875.25
2022-09-12T07:30:54.144Z,99882.19
2022-09-12T07:34:58.563Z,99890.00
2022-09-12T07:39:02.007Z,99887.16
2022-09-12T07:43:05.036Z,99892.28
2022-09-12T07:47:08.407Z,99886.72
2022-09-12T07:51:13.379Z,99889.22
2022-09-12T07:55:16.742Z,99885.44
2022-09-12T07:59:41.476Z,99884.16
2022-09-12T08:03:45.152Z,99885.56
2022-09-12T08:07:49.786Z,99879.97
2022-09-12T08:11:53.046Z,99883.16
2022-09-12T08:16:00.013Z,99889.91
2022-09-12T08:20:04.066Z,99885.06
2022-09-12T08:24:08.944Z,99883.09
2022-09-12T08:28:11.939Z,99892.81
2022-09-12T08:32:15.163Z,99880.38
2022-09-12T08:36:21.024Z,99880.19
2022-09-12T08:40:25.826Z,99888.66
2022-09-12T08:44:51.699Z,99883.91
2022-09-12T08:48:58.583Z,99883.06
2022-09-12T08:53:05.759Z,99873.97
2022-09-12T08:57:13.040Z,99866.66
2022-09-12T09:01:31.378Z,99872.59
2022-09-12T09:05:47.367Z,99878.66
2022-09-12T09:10:03.537Z,99881.19
2022-09-12T09:14:39.975Z,99876.94
2022-09-12T09:18:45.809Z,99870.06
2022-09-12T09:22:53.518Z,99865.56
2022-09-12T09:27:02.123Z,99858.69
2022-09-12T09:31:07.221Z,99859.28
2022-09-12T09:35:18.828Z,99863.84
2022-09-12T09:39:36.235Z,99859.53
2022-09-12T09:43:39.893Z,99857.78
2022-09-12T09:47:46.586Z,99857.53
2022-09-12T09:51:50.151Z,99852.50
2022-09-12T09:55:56.683Z,99859.03
2022-09-12T09:59:59.911Z,99855.00
2022-09-12T10:04:04.585Z,99856.78
2022-09-12T10:08:09.040Z,99853.09
2022-09-12T10:12:28.177Z,99848.44
2022-09-12T10:16:33.354Z,99838.44
2022-09-12T10:20:41.738Z,99833.09
2022-09-12T10:24:50.731Z,99830.56
2022-09-12T10:28:56.944Z,99828.09
2022-09-12T10:33:08.397Z,99820.16
2022-09-12T10:37:24.394Z,99829.81
2022-09-12T10:41:27.874Z,99823.28
2022-09-12T10:45:33.111Z,99822.91
2022-09-12T10:49:40.104Z,99822.22
2022-09-12T10:53:47.024Z,99817.25
2022-09-12T10:58:05.359Z,99821.81
2022-09-12T11:02:21.477Z,99824.84
2022-09-12T11:06:31.589Z,99813.22
2022-09-12T11:10:45.071Z,99809.06
2022-09-12T11:15:03.519Z,99805.72
2022-09-12T11:19:22.043Z,99802.13
2022-09-12T11:24:00.387Z,99794.34
2022-09-12T11:28:36.525Z,99794.34
2022-09-12T11:33:05.598Z,99790.00
2022-09-12T11:37:27.858Z,99796.88
2022-09-12T11:41:33.892Z,99800.94
2022-09-12T11:45:43.710Z,99793.63
2022-09-12T11:49:50.700Z,99792.00
2022-09-12T11:54:13.523Z,99785.06
2022-09-12T11:58:19.496Z,99777.38
2022-09-12T12:02:28.863Z,99783.56
2022-09-12T12:06:35.234Z,99765.50
2022-09-12T12:10:42.363Z,99775.50
2022-09-12T12:14:49.029Z,99773.91
2022-09-12T12:18:58.482Z,99771.88
2022-09-12T12:23:02.227Z,99765.34
2022-09-12T12:27:23.743Z,99761.50
2022-09-12T12:31:29.277Z,99752.56
2022-09-12T12:35:41.950Z,99759.97
2022-09-12T12:40:05.840Z,99755.69
2022-09-12T12:44:48.884Z,99743.06
2022-09-12T12:49:09.497Z,99740.13
2022-09-12T12:53:22.418Z,99743.44
2022-09-12T12:57:50.421Z,99733.06
2022-09-12T13:01:56.804Z,99738.09
2022-09-12T13:06:03.474Z,99734.44
2022-09-12T13:10:09.341Z,99734.00
2022-09-12T13:14:36.406Z,99725.97
2022-09-12T13:18:44.620Z,99727.50
2022-09-12T13:22:50.080Z,99730.53
2022-09-12T13:26:54.821Z,99733.84
2022-09-12T13:31:03.421Z,99728.22
2022-09-12T13:35:15.366Z,99736.47
2022-09-12T13:39:27.528Z,99728.59
2022-09-12T13:43:40.068Z,99732.00
2022-09-12T13:47:45.320Z,99725.06
2022-09-12T13:51:59.549Z,99720.22
2022-09-12T13:56:03.797Z,99720.38
2022-09-12T14:00:18.212Z,99717.34
2022-09-12T14:04:40.257Z,99708.31
2022-09-12T14:08:44.909Z,99709.28
2022-09-12T14:12:50.822Z,99710.88
2022-09-12T14:16:55.512Z,99710.22
2022-09-12T14:21:10.405Z,99708.63
2022-09-12T14:25:16.614Z,99699.66
2022-09-12T14:29:21.007Z,99697.78
2022-09-12T14:33:25.695Z,99693.34
2022-09-12T14:37:28.726Z,99691.63
2022-09-12T14:41:37.373Z,99699.78
2022-09-12T14:45:41.017Z,99690.13
2022-09-12T14:49:45.691Z,99683.97
2022-09-12T14:53:52.509Z,99689.47
2022-09-12T14:58:13.357Z,99681.59
2022-09-12T15:02:24.223Z,99681.81
2022-09-12T15:06:31.700Z,99677.28
2022-09-12T15:10:36.896Z,99683.56
2022-09-12T15:14:39.927Z,99679.19
2022-09-12T15:18:43.331Z,99679.50
2022-09-12T15:22:48.070Z,99688.84
2022-09-12T15:26:51.070Z,99679.19
2022-09-12T15:30:57.059Z,99679.25
2022-09-12T15:35:00.305Z,99678.41
2022-09-12T15:39:05.066Z,99674.94
2022-09-12T15:43:08.261Z,99665.94
2022-09-12T15:47:13.940Z,99681.22
2022-09-12T15:51:18.510Z,99676.66
2022-09-12T15:55:24.542Z,99674.72
2022-09-12T15:59:27.727Z,99679.19
2022-09-12T16:03:31.383Z,99678.34
2022-09-12T16:07:34.572Z,99673.97
2022-09-12T16:11:39.675Z,99674.19
2022-09-12T16:15:42.749Z,99671.72
2022-09-12T16:19:45.859Z,99675.63
2022-09-12T16:23:49.784Z,99676.91
2022-09-12T16:27:54.402Z,99682.50
2022-09-12T16:31:57.747Z,99678.19
2022-09-12T16:36:05.131Z,99684.69
2022-09-12T16:40:09.387Z,99691.97
2022-09-12T16:44:14.384Z,99688.56
2022-09-12T16:48:17.603Z,99681.66
2022-09-12T16:52:20.761Z,99680.16
2022-09-12T16:56:24.977Z,99683.81
2022-09-12T17:00:29.330Z,99687.66
2022-09-12T17:04:32.356Z,99673.66
2022-09-12T17:08:38.236Z,99675.72
2022-09-12T17:12:41.546Z,99691.59
2022-09-12T17:16:51.681Z,99688.47
2022-09-12T17:20:54.991Z,99688.75
2022-09-12T17:24:58.284Z,99700.53
2022-09-12T17:29:01.651Z,99705.16
2022-09-12T17:33:06.200Z,99701.94
2022-09-12T17:37:09.639Z,99702.28
2022-09-12T17:41:16.048Z,99712.31
2022-09-12T17:45:19.243Z,99712.59
2022-09-12T17:49:24.183Z,99716.38
2022-09-12T17:53:27.251Z,99724.56
2022-09-12T17:57:30.897Z,99720.34
2022-09-12T18:01:51.448Z,99728.56
2022-09-12T18:05:57.703Z,99732.50
2022-09-12T18:10:00.814Z,99740.72
2022-09-12T18:14:03.889Z,99735.53
2022-09-12T18:18:07.378Z,99747.31
2022-09-12T18:22:12.002Z,99747.56
2022-09-12T18:26:15.337Z,99750.38
2022-09-12T18:30:22.156Z,99748.78
2022-09-12T18:34:25.347Z,99757.84
2022-09-12T18:38:29.698Z,99751.88
2022-09-12T18:42:32.851Z,99742.34
2022-09-12T18:46:36.747Z,99755.97
2022-09-12T18:50:39.723Z,99750.06
2022-09-12T18:54:44.117Z,99754.72
2022-09-12T18:58:51.964Z,99759.38
2022-09-12T19:02:55.210Z,99755.13
2022-09-12T19:06:58.159Z,99757.06
2022-09-12T19:11:03.293Z,99750.19
2022-09-12T19:15:07.220Z,99748.69
2022-09-12T19:19:10.472Z,99750.69
2022-09-12T19:23:13.788Z,99758.03
2022-09-12T19:27:18.121Z,99752.91
2022-09-12T19:31:22.018Z,99754.03
2022-09-12T19:35:25.641Z,99756.88
2022-09-12T19:39:28.962Z,99755.28
2022-09-12T19:43:33.507Z,99754.56
2022-09-12T19:47:36.508Z,99758.31
2022-09-12T19:51:39.810Z,99755.72
2022-09-12T19:55:42.864Z,99755.81
2022-09-12T19:59:48.107Z,99751.53
2022-09-12T20:03:52.590Z,99749.94
2022-09-12T20:07:55.596Z,99742.09
2022-09-12T20:11:58.625Z,99740.50
2022-09-12T20:16:08.760Z,99750.41
2022-09-12T20:20:12.266Z,99746.94
2022-09-12T20:24:15.848Z,99757.72
2022-09-12T20:28:18.890Z,99760.53
2022-09-12T20:32:23.283Z,99762.44
2022-09-12T20:36:27.055Z,99759.03
2022-09-12T20:40:30.217Z,99760.13
2022-09-12T20:44:33.205Z,99764.69
2022-09-12T20:48:37.838Z,99763.94
2022-09-12T20:52:41.001Z,99764.00
2022-09-12T20:56:44.477Z,99763.28
2022-09-12T21:00:47.712Z,99766.22
2022-09-12T21:04:52.443Z,99761.06
2022-09-12T21:08:58.685Z,99762.09
2022-09-12T21:13:01.796Z,99758.66
2022-09-12T21:17:05.624Z,99759.66
2022-09-12T21:21:11.718Z,99761.53
2022-09-12T21:25:14.943Z,99763.38
2022-09-12T21:29:18.093Z,99764.28
2022-09-12T21:33:22.643Z,99759.97
2022-09-12T21:37:27.490Z,99764.50
2022-09-12T21:41:30.707Z,99757.44
2022-09-12T21:45:34.150Z,99754.84
2022-09-12T21:49:37.379Z,99753.16
2022-09-12T21:53:42.226Z,99744.34
2022-09-12T21:57:45.316Z,99755.91
2022-09-12T22:01:48.413Z,99752.47
2022-09-12T22:05:52.531Z,99758.81
2022-09-12T22:09:57.341Z,99747.44
2022-09-12T22:14:00.365Z,99746.66
2022-09-12T22:18:03.314Z,99752.91
2022-09-12T22:22:24.386Z,99742.34
2022-09-12T22:26:29.230Z,99738.88
2022-09-12T22:30:32.452Z,99744.25
2022-09-12T22:34:35.668Z,99751.38
2022-09-12T22:38:38.989Z,99746.09
2022-09-12T22:42:43.629Z,99746.16
2022-09-12T22:46:46.899Z,99745.28
2022-09-12T22:50:50.290Z,99739.97
2022-09-12T22:54:53.582Z,99735.47
2022-09-12T22:58:58.608Z,99739.00
2022-09-12T23:03:02.294Z,99739.09
2022-09-12T23:07:05.569Z,99742.72
2022-09-12T23:11:10.931Z,99729.53
2022-09-12T23:15:15.465Z,99725.16
2022-09-12T23:19:18.454Z,99714.59
2022-09-12T23:23:21.418Z,99717.22
2022-09-12T23:27:27.099Z,99714.59
2022-09-12T23:31:33.477Z,99716.41
2022-09-12T23:35:36.658Z,99715.59
2022-09-12T23:39:39.815Z,99710.38
2022-09-12T23:43:45.347Z,99715.78
2022-09-12T23:47:49.722Z,99713.19
2022-09-12T23:51:52.913Z,99714.09
2022-09-12T23:55:56.028Z,99707.13
2022-09-12T23:59:59.037Z,99710.75
